sensor_id;sensor_type;location;lat;lon;timestamp;P1;P2;P0
44684;PMS5003;76140;45.696;8.652;2024-03-25T00:00:20;1;1;
44684;PMS5003;76140;45.696;8.652;2024-03-25T00:02:45;1;1;
44684;PMS5003;76140;45.696;8.652;2024-03-25T00:05:10;2;1;
44684;PMS5003;76140;45.696;8.652;2024-03-25T00:07:35;2;2;
44684;PMS5003;76140;45.696;8.652;2024-03-25T00:10:01;1;1;
44684;PMS5003;76140;45.696;8.652;2024-03-25T00:12:26;1;1;
44684;PMS5003;76140;45.696;8.652;2024-03-25T00:14:51;1;1;
44684;PMS5003;76140;45.696;8.652;2024-03-25T00:17:17;1;1;
44684;PMS5003;76140;45.696;8.652;2024-03-25T00:19:42;0;0;
44684;PMS5003;76140;45.696;8.652;2024-03-25T00:22:07;0;0;
44684;PMS5003;76140;45.696;8.652;2024-03-25T00:24:33;0;0;
44684;PMS5003;76140;45.696;8.652;2024-03-25T00:26:58;1;1;
44684;PMS5003;76140;45.696;8.652;2024-03-25T00:29:23;1;1;
44684;PMS5003;76140;45.696;8.652;2024-03-25T00:31:49;0;0;
44684;PMS5003;76140;45.696;8.652;2024-03-25T00:34:14;1;0;
44684;PMS5003;76140;45.696;8.652;2024-03-25T00:36:39;0;0;
44684;PMS5003;76140;45.696;8.652;2024-03-25T00:39:04;1;1;
44684;PMS5003;76140;45.696;8.652;2024-03-25T00:41:30;1;1;
44684;PMS5003;76140;45.696;8.652;2024-03-25T00:43:55;1;1;
44684;PMS5003;76140;45.696;8.652;2024-03-25T00:46:20;0;0;
44684;PMS5003;76140;45.696;8.652;2024-03-25T00:48:46;2;2;
44684;PMS5003;76140;45.696;8.652;2024-03-25T00:51:11;1;1;
44684;PMS5003;76140;45.696;8.652;2024-03-25T00:53:36;3;2;
44684;PMS5003;76140;45.696;8.652;2024-03-25T00:56:02;1;1;
44684;PMS5003;76140;45.696;8.652;2024-03-25T00:58:27;5;5;
44684;PMS5003;76140;45.696;8.652;2024-03-25T01:00:52;9;8;
44684;PMS5003;76140;45.696;8.652;2024-03-25T01:03:18;2;2;
44684;PMS5003;76140;45.696;8.652;2024-03-25T01:05:43;3;3;
44684;PMS5003;76140;45.696;8.652;2024-03-25T01:08:08;3;2;
44684;PMS5003;76140;45.696;8.652;2024-03-25T01:10:34;2;2;
44684;PMS5003;76140;45.696;8.652;2024-03-25T01:12:59;1;1;
44684;PMS5003;76140;45.696;8.652;2024-03-25T01:15:24;0;0;
44684;PMS5003;76140;45.696;8.652;2024-03-25T01:17:50;1;1;
44684;PMS5003;76140;45.696;8.652;2024-03-25T01:20:15;1;1;
44684;PMS5003;76140;45.696;8.652;2024-03-25T01:22:40;1;1;
44684;PMS5003;76140;45.696;8.652;2024-03-25T01:25:06;1;1;
44684;PMS5003;76140;45.696;8.652;2024-03-25T01:27:31;1;1;
44684;PMS5003;76140;45.696;8.652;2024-03-25T01:29:57;0;0;
44684;PMS5003;76140;45.696;8.652;2024-03-25T01:32:22;0;0;
44684;PMS5003;76140;45.696;8.652;2024-03-25T01:34:47;1;1;
44684;PMS5003;76140;45.696;8.652;2024-03-25T01:37:13;1;1;
44684;PMS5003;76140;45.696;8.652;2024-03-25T01:39:38;2;1;
44684;PMS5003;76140;45.696;8.652;2024-03-25T01:42:04;1;1;
44684;PMS5003;76140;45.696;8.652;2024-03-25T01:44:29;2;2;
44684;PMS5003;76140;45.696;8.652;2024-03-25T01:46:54;1;1;
44684;PMS5003;76140;45.696;8.652;2024-03-25T01:49:19;3;3;
44684;PMS5003;76140;45.696;8.652;2024-03-25T01:51:45;2;2;
44684;PMS5003;76140;45.696;8.652;2024-03-25T01:54:10;4;3;
44684;PMS5003;76140;45.696;8.652;2024-03-25T01:56:35;4;3;
44684;PMS5003;76140;45.696;8.652;2024-03-25T01:59:01;1;1;
44684;PMS5003;76140;45.696;8.652;2024-03-25T02:01:26;1;1;
44684;PMS5003;76140;45.696;8.652;2024-03-25T02:03:51;2;2;
44684;PMS5003;76140;45.696;8.652;2024-03-25T02:06:17;1;1;
44684;PMS5003;76140;45.696;8.652;2024-03-25T02:08:42;1;1;
44684;PMS5003;76140;45.696;8.652;2024-03-25T02:11:08;2;1;
44684;PMS5003;76140;45.696;8.652;2024-03-25T02:13:33;2;2;
44684;PMS5003;76140;45.696;8.652;2024-03-25T02:15:58;2;2;
44684;PMS5003;76140;45.696;8.652;2024-03-25T02:18:23;2;2;
44684;PMS5003;76140;45.696;8.652;2024-03-25T02:20:49;3;3;
44684;PMS5003;76140;45.696;8.652;2024-03-25T02:23:14;3;3;
44684;PMS5003;76140;45.696;8.652;2024-03-25T02:25:41;2;2;
44684;PMS5003;76140;45.696;8.652;2024-03-25T02:28:05;3;2;
44684;PMS5003;76140;45.696;8.652;2024-03-25T02:30:30;1;1;
44684;PMS5003;76140;45.696;8.652;2024-03-25T02:32:55;1;1;
44684;PMS5003;76140;45.696;8.652;2024-03-25T02:35:21;1;1;
44684;PMS5003;76140;45.696;8.652;2024-03-25T02:37:46;2;2;
44684;PMS5003;76140;45.696;8.652;2024-03-25T02:40:12;1;1;
44684;PMS5003;76140;45.696;8.652;2024-03-25T02:42:37;1;1;
44684;PMS5003;76140;45.696;8.652;2024-03-25T02:45:03;2;2;
44684;PMS5003;76140;45.696;8.652;2024-03-25T02:47:28;1;1;
44684;PMS5003;76140;45.696;8.652;2024-03-25T02:49:53;1;1;
44684;PMS5003;76140;45.696;8.652;2024-03-25T02:52:18;1;1;
44684;PMS5003;76140;45.696;8.652;2024-03-25T02:54:44;1;1;
44684;PMS5003;76140;45.696;8.652;2024-03-25T02:57:09;1;1;
44684;PMS5003;76140;45.696;8.652;2024-03-25T02:59:34;1;1;
44684;PMS5003;76140;45.696;8.652;2024-03-25T03:02:00;1;1;
44684;PMS5003;76140;45.696;8.652;2024-03-25T03:04:25;1;1;
44684;PMS5003;76140;45.696;8.652;2024-03-25T03:06:50;1;1;
44684;PMS5003;76140;45.696;8.652;2024-03-25T03:09:16;2;2;
44684;PMS5003;76140;45.696;8.652;2024-03-25T03:11:41;1;1;
44684;PMS5003;76140;45.696;8.652;2024-03-25T03:14:07;1;1;
44684;PMS5003;76140;45.696;8.652;2024-03-25T03:16:32;1;1;
44684;PMS5003;76140;45.696;8.652;2024-03-25T03:18:57;1;1;
44684;PMS5003;76140;45.696;8.652;2024-03-25T03:21:23;1;1;
44684;PMS5003;76140;45.696;8.652;2024-03-25T03:23:48;1;1;
44684;PMS5003;76140;45.696;8.652;2024-03-25T03:26:13;1;1;
44684;PMS5003;76140;45.696;8.652;2024-03-25T03:28:39;3;3;
44684;PMS5003;76140;45.696;8.652;2024-03-25T03:31:04;4;4;
44684;PMS5003;76140;45.696;8.652;2024-03-25T03:33:29;4;4;
44684;PMS5003;76140;45.696;8.652;2024-03-25T03:35:55;4;4;
44684;PMS5003;76140;45.696;8.652;2024-03-25T03:38:20;5;4;
44684;PMS5003;76140;45.696;8.652;2024-03-25T03:40:55;4;4;
44684;PMS5003;76140;45.696;8.652;2024-03-25T03:43:11;3;3;
44684;PMS5003;76140;45.696;8.652;2024-03-25T03:45:36;3;3;
44684;PMS5003;76140;45.696;8.652;2024-03-25T03:48:02;5;5;
44684;PMS5003;76140;45.696;8.652;2024-03-25T03:50:27;5;5;
44684;PMS5003;76140;45.696;8.652;2024-03-25T03:52:52;5;5;
44684;PMS5003;76140;45.696;8.652;2024-03-25T03:55:18;5;5;
44684;PMS5003;76140;45.696;8.652;2024-03-25T03:57:43;6;6;
44684;PMS5003;76140;45.696;8.652;2024-03-25T04:00:09;6;5;
44684;PMS5003;76140;45.696;8.652;2024-03-25T04:02:34;5;5;
44684;PMS5003;76140;45.696;8.652;2024-03-25T04:04:59;6;6;
44684;PMS5003;76140;45.696;8.652;2024-03-25T04:07:25;6;6;
44684;PMS5003;76140;45.696;8.652;2024-03-25T04:09:50;7;7;
44684;PMS5003;76140;45.696;8.652;2024-03-25T04:12:15;8;7;
44684;PMS5003;76140;45.696;8.652;2024-03-25T04:14:41;7;7;
44684;PMS5003;76140;45.696;8.652;2024-03-25T04:17:06;8;8;
44684;PMS5003;76140;45.696;8.652;2024-03-25T04:19:31;10;10;
44684;PMS5003;76140;45.696;8.652;2024-03-25T04:21:57;8;8;
44684;PMS5003;76140;45.696;8.652;2024-03-25T04:24:22;11;11;
44684;PMS5003;76140;45.696;8.652;2024-03-25T04:26:47;13;13;
44684;PMS5003;76140;45.696;8.652;2024-03-25T04:29:14;17;17;
44684;PMS5003;76140;45.696;8.652;2024-03-25T04:31:40;21;21;
44684;PMS5003;76140;45.696;8.652;2024-03-25T04:34:05;25;25;
44684;PMS5003;76140;45.696;8.652;2024-03-25T04:36:31;25;25;
44684;PMS5003;76140;45.696;8.652;2024-03-25T04:38:56;29;29;
44684;PMS5003;76140;45.696;8.652;2024-03-25T04:41:22;37;36;
44684;PMS5003;76140;45.696;8.652;2024-03-25T04:43:47;36;36;
44684;PMS5003;76140;45.696;8.652;2024-03-25T04:46:13;37;37;
44684;PMS5003;76140;45.696;8.652;2024-03-25T04:48:38;39;39;
44684;PMS5003;76140;45.696;8.652;2024-03-25T04:51:04;43;43;
44684;PMS5003;76140;45.696;8.652;2024-03-25T04:53:30;46;46;
44684;PMS5003;76140;45.696;8.652;2024-03-25T04:55:55;49;48;
44684;PMS5003;76140;45.696;8.652;2024-03-25T04:58:20;48;48;
44684;PMS5003;76140;45.696;8.652;2024-03-25T05:00:46;44;44;
44684;PMS5003;76140;45.696;8.652;2024-03-25T05:03:11;37;36;
44684;PMS5003;76140;45.696;8.652;2024-03-25T05:05:37;34;34;
44684;PMS5003;76140;45.696;8.652;2024-03-25T05:08:03;36;36;
44684;PMS5003;76140;45.696;8.652;2024-03-25T05:10:28;51;51;
44684;PMS5003;76140;45.696;8.652;2024-03-25T05:12:53;25;25;
44684;PMS5003;76140;45.696;8.652;2024-03-25T05:15:19;71;71;
44684;PMS5003;76140;45.696;8.652;2024-03-25T05:17:44;79;79;
44684;PMS5003;76140;45.696;8.652;2024-03-25T05:20:10;53;53;
44684;PMS5003;76140;45.696;8.652;2024-03-25T05:22:36;48;48;
44684;PMS5003;76140;45.696;8.652;2024-03-25T05:25:01;61;61;
44684;PMS5003;76140;45.696;8.652;2024-03-25T05:27:27;68;68;
44684;PMS5003;76140;45.696;8.652;2024-03-25T05:29:52;43;43;
44684;PMS5003;76140;45.696;8.652;2024-03-25T05:32:17;14;14;
44684;PMS5003;76140;45.696;8.652;2024-03-25T05:34:43;67;67;
44684;PMS5003;76140;45.696;8.652;2024-03-25T05:37:08;25;25;
44684;PMS5003;76140;45.696;8.652;2024-03-25T05:39:34;38;38;
44684;PMS5003;76140;45.696;8.652;2024-03-25T05:41:59;36;35;
44684;PMS5003;76140;45.696;8.652;2024-03-25T05:44:25;30;30;
44684;PMS5003;76140;45.696;8.652;2024-03-25T05:46:50;28;28;
44684;PMS5003;76140;45.696;8.652;2024-03-25T05:49:15;29;29;
44684;PMS5003;76140;45.696;8.652;2024-03-25T05:51:41;15;15;
44684;PMS5003;76140;45.696;8.652;2024-03-25T05:54:06;8;8;
44684;PMS5003;76140;45.696;8.652;2024-03-25T05:56:32;9;9;
44684;PMS5003;76140;45.696;8.652;2024-03-25T05:58:57;7;7;
44684;PMS5003;76140;45.696;8.652;2024-03-25T06:01:22;0;0;
44684;PMS5003;76140;45.696;8.652;2024-03-25T06:03:48;1;0;
44684;PMS5003;76140;45.696;8.652;2024-03-25T06:06:13;1;1;
44684;PMS5003;76140;45.696;8.652;2024-03-25T06:08:38;1;1;
44684;PMS5003;76140;45.696;8.652;2024-03-25T06:11:04;1;1;
44684;PMS5003;76140;45.696;8.652;2024-03-25T06:13:29;0;0;
44684;PMS5003;76140;45.696;8.652;2024-03-25T06:15:54;1;1;
44684;PMS5003;76140;45.696;8.652;2024-03-25T06:18:20;1;1;
44684;PMS5003;76140;45.696;8.652;2024-03-25T06:20:45;0;0;
44684;PMS5003;76140;45.696;8.652;2024-03-25T06:23:10;0;0;
44684;PMS5003;76140;45.696;8.652;2024-03-25T06:25:36;1;1;
44684;PMS5003;76140;45.696;8.652;2024-03-25T06:28:01;1;1;
44684;PMS5003;76140;45.696;8.652;2024-03-25T06:30:26;2;1;
44684;PMS5003;76140;45.696;8.652;2024-03-25T06:32:52;1;1;
44684;PMS5003;76140;45.696;8.652;2024-03-25T06:35:17;1;1;
44684;PMS5003;76140;45.696;8.652;2024-03-25T06:37:42;1;1;
44684;PMS5003;76140;45.696;8.652;2024-03-25T06:40:08;1;1;
44684;PMS5003;76140;45.696;8.652;2024-03-25T06:42:33;2;1;
44684;PMS5003;76140;45.696;8.652;2024-03-25T06:44:58;2;2;
44684;PMS5003;76140;45.696;8.652;2024-03-25T06:47:24;1;1;
44684;PMS5003;76140;45.696;8.652;2024-03-25T06:49:49;1;1;
44684;PMS5003;76140;45.696;8.652;2024-03-25T06:52:15;1;1;
44684;PMS5003;76140;45.696;8.652;2024-03-25T06:54:40;1;1;
44684;PMS5003;76140;45.696;8.652;2024-03-25T06:57:05;4;2;
44684;PMS5003;76140;45.696;8.652;2024-03-25T06:59:30;1;1;
44684;PMS5003;76140;45.696;8.652;2024-03-25T07:01:56;2;2;
44684;PMS5003;76140;45.696;8.652;2024-03-25T07:04:21;1;1;
44684;PMS5003;76140;45.696;8.652;2024-03-25T07:06:46;1;1;
44684;PMS5003;76140;45.696;8.652;2024-03-25T07:09:12;2;1;
44684;PMS5003;76140;45.696;8.652;2024-03-25T07:11:37;7;7;
44684;PMS5003;76140;45.696;8.652;2024-03-25T07:14:02;1;1;
44684;PMS5003;76140;45.696;8.652;2024-03-25T07:16:27;0;0;
44684;PMS5003;76140;45.696;8.652;2024-03-25T07:18:52;1;1;
44684;PMS5003;76140;45.696;8.652;2024-03-25T07:21:18;0;0;
44684;PMS5003;76140;45.696;8.652;2024-03-25T07:23:44;0;0;
44684;PMS5003;76140;45.696;8.652;2024-03-25T07:26:10;0;0;
44684;PMS5003;76140;45.696;8.652;2024-03-25T07:28:35;0;0;
44684;PMS5003;76140;45.696;8.652;2024-03-25T07:31:01;1;1;
44684;PMS5003;76140;45.696;8.652;2024-03-25T07:33:27;0;0;
44684;PMS5003;76140;45.696;8.652;2024-03-25T07:35:53;0;0;
44684;PMS5003;76140;45.696;8.652;2024-03-25T07:38:18;0;0;
44684;PMS5003;76140;45.696;8.652;2024-03-25T07:40:44;0;0;
44684;PMS5003;76140;45.696;8.652;2024-03-25T07:43:10;0;0;
44684;PMS5003;76140;45.696;8.652;2024-03-25T07:45:35;1;1;
44684;PMS5003;76140;45.696;8.652;2024-03-25T07:48:01;2;1;
44684;PMS5003;76140;45.696;8.652;2024-03-25T07:50:27;0;0;
44684;PMS5003;76140;45.696;8.652;2024-03-25T07:52:52;0;0;
44684;PMS5003;76140;45.696;8.652;2024-03-25T07:55:18;1;1;
44684;PMS5003;76140;45.696;8.652;2024-03-25T07:57:44;1;1;
44684;PMS5003;76140;45.696;8.652;2024-03-25T08:00:10;0;0;
44684;PMS5003;76140;45.696;8.652;2024-03-25T08:02:35;0;0;
44684;PMS5003;76140;45.696;8.652;2024-03-25T08:05:01;0;0;
44684;PMS5003;76140;45.696;8.652;2024-03-25T08:07:26;1;1;
44684;PMS5003;76140;45.696;8.652;2024-03-25T08:09:52;1;1;
44684;PMS5003;76140;45.696;8.652;2024-03-25T08:12:18;0;0;
44684;PMS5003;76140;45.696;8.652;2024-03-25T08:14:43;0;0;
44684;PMS5003;76140;45.696;8.652;2024-03-25T08:17:09;0;0;
44684;PMS5003;76140;45.696;8.652;2024-03-25T08:19:35;0;0;
44684;PMS5003;76140;45.696;8.652;2024-03-25T08:22:00;0;0;
44684;PMS5003;76140;45.696;8.652;2024-03-25T08:24:26;2;1;
44684;PMS5003;76140;45.696;8.652;2024-03-25T08:26:51;1;1;
44684;PMS5003;76140;45.696;8.652;2024-03-25T08:29:17;0;0;
44684;PMS5003;76140;45.696;8.652;2024-03-25T08:31:43;1;1;
44684;PMS5003;76140;45.696;8.652;2024-03-25T08:34:08;0;0;
44684;PMS5003;76140;45.696;8.652;2024-03-25T08:36:34;0;0;
44684;PMS5003;76140;45.696;8.652;2024-03-25T08:39:00;0;0;
44684;PMS5003;76140;45.696;8.652;2024-03-25T08:41:25;0;0;
44684;PMS5003;76140;45.696;8.652;2024-03-25T08:43:51;0;0;
44684;PMS5003;76140;45.696;8.652;2024-03-25T08:46:17;0;0;
44684;PMS5003;76140;45.696;8.652;2024-03-25T08:48:42;0;0;
44684;PMS5003;76140;45.696;8.652;2024-03-25T08:51:08;0;0;
44684;PMS5003;76140;45.696;8.652;2024-03-25T08:53:34;0;0;
44684;PMS5003;76140;45.696;8.652;2024-03-25T08:55:59;0;0;
44684;PMS5003;76140;45.696;8.652;2024-03-25T08:58:25;0;0;
44684;PMS5003;76140;45.696;8.652;2024-03-25T09:00:50;0;0;
44684;PMS5003;76140;45.696;8.652;2024-03-25T09:03:16;0;0;
44684;PMS5003;76140;45.696;8.652;2024-03-25T09:05:42;1;1;
44684;PMS5003;76140;45.696;8.652;2024-03-25T09:08:07;1;1;
44684;PMS5003;76140;45.696;8.652;2024-03-25T09:10:33;0;0;
44684;PMS5003;76140;45.696;8.652;2024-03-25T09:12:59;0;0;
44684;PMS5003;76140;45.696;8.652;2024-03-25T09:15:24;0;0;
44684;PMS5003;76140;45.696;8.652;2024-03-25T09:17:50;0;0;
44684;PMS5003;76140;45.696;8.652;2024-03-25T09:20:16;0;0;
44684;PMS5003;76140;45.696;8.652;2024-03-25T09:22:41;0;0;
44684;PMS5003;76140;45.696;8.652;2024-03-25T09:25:07;0;0;
44684;PMS5003;76140;45.696;8.652;2024-03-25T09:27:32;1;1;
44684;PMS5003;76140;45.696;8.652;2024-03-25T09:29:58;0;0;
44684;PMS5003;76140;45.696;8.652;2024-03-25T09:32:24;2;1;
44684;PMS5003;76140;45.696;8.652;2024-03-25T09:34:49;0;0;
44684;PMS5003;76140;45.696;8.652;2024-03-25T09:37:15;0;0;
44684;PMS5003;76140;45.696;8.652;2024-03-25T09:39:41;0;0;
44684;PMS5003;76140;45.696;8.652;2024-03-25T09:42:07;0;0;
44684;PMS5003;76140;45.696;8.652;2024-03-25T09:44:32;0;0;
44684;PMS5003;76140;45.696;8.652;2024-03-25T09:46:58;0;0;
44684;PMS5003;76140;45.696;8.652;2024-03-25T09:49:23;0;0;
44684;PMS5003;76140;45.696;8.652;2024-03-25T09:51:49;0;0;
44684;PMS5003;76140;45.696;8.652;2024-03-25T09:54:15;0;0;
44684;PMS5003;76140;45.696;8.652;2024-03-25T09:56:40;0;0;
44684;PMS5003;76140;45.696;8.652;2024-03-25T09:59:06;0;0;
44684;PMS5003;76140;45.696;8.652;2024-03-25T10:01:32;0;0;
44684;PMS5003;76140;45.696;8.652;2024-03-25T10:03:57;0;0;
44684;PMS5003;76140;45.696;8.652;2024-03-25T10:06:23;0;0;
44684;PMS5003;76140;45.696;8.652;2024-03-25T10:08:49;0;0;
44684;PMS5003;76140;45.696;8.652;2024-03-25T10:11:15;0;0;
44684;PMS5003;76140;45.696;8.652;2024-03-25T10:13:40;0;0;
44684;PMS5003;76140;45.696;8.652;2024-03-25T10:16:06;1;1;
44684;PMS5003;76140;45.696;8.652;2024-03-25T10:18:31;1;1;
44684;PMS5003;76140;45.696;8.652;2024-03-25T10:20:57;16;15;
44684;PMS5003;76140;45.696;8.652;2024-03-25T10:23:23;0;0;
44684;PMS5003;76140;45.696;8.652;2024-03-25T10:25:49;0;0;
44684;PMS5003;76140;45.696;8.652;2024-03-25T10:28:14;0;0;
44684;PMS5003;76140;45.696;8.652;2024-03-25T10:30:40;0;0;
44684;PMS5003;76140;45.696;8.652;2024-03-25T10:33:06;0;0;
44684;PMS5003;76140;45.696;8.652;2024-03-25T10:35:32;0;0;
44684;PMS5003;76140;45.696;8.652;2024-03-25T10:37:58;0;0;
44684;PMS5003;76140;45.696;8.652;2024-03-25T10:40:23;0;0;
44684;PMS5003;76140;45.696;8.652;2024-03-25T10:42:49;0;0;
44684;PMS5003;76140;45.696;8.652;2024-03-25T10:45:15;0;0;
44684;PMS5003;76140;45.696;8.652;2024-03-25T10:47:40;0;0;
44684;PMS5003;76140;45.696;8.652;2024-03-25T10:50:07;0;0;
44684;PMS5003;76140;45.696;8.652;2024-03-25T10:52:32;1;1;
44684;PMS5003;76140;45.696;8.652;2024-03-25T10:54:57;0;0;
44684;PMS5003;76140;45.696;8.652;2024-03-25T10:57:23;0;0;
44684;PMS5003;76140;45.696;8.652;2024-03-25T10:59:49;1;0;
44684;PMS5003;76140;45.696;8.652;2024-03-25T11:02:15;0;0;
44684;PMS5003;76140;45.696;8.652;2024-03-25T11:04:40;1;1;
44684;PMS5003;76140;45.696;8.652;2024-03-25T11:07:07;0;0;
44684;PMS5003;76140;45.696;8.652;2024-03-25T11:09:32;1;1;
44684;PMS5003;76140;45.696;8.652;2024-03-25T11:11:57;0;0;
44684;PMS5003;76140;45.696;8.652;2024-03-25T11:14:24;0;0;
44684;PMS5003;76140;45.696;8.652;2024-03-25T11:16:52;0;0;
44684;PMS5003;76140;45.696;8.652;2024-03-25T11:19:14;0;0;
44684;PMS5003;76140;45.696;8.652;2024-03-25T11:21:40;0;0;
44684;PMS5003;76140;45.696;8.652;2024-03-25T11:24:06;2;1;
44684;PMS5003;76140;45.696;8.652;2024-03-25T11:26:32;3;1;
44684;PMS5003;76140;45.696;8.652;2024-03-25T11:28:58;0;0;
44684;PMS5003;76140;45.696;8.652;2024-03-25T11:31:24;2;2;
44684;PMS5003;76140;45.696;8.652;2024-03-25T11:33:49;0;0;
44684;PMS5003;76140;45.696;8.652;2024-03-25T11:36:15;0;0;
44684;PMS5003;76140;45.696;8.652;2024-03-25T11:38:41;0;0;
44684;PMS5003;76140;45.696;8.652;2024-03-25T11:41:07;2;2;
44684;PMS5003;76140;45.696;8.652;2024-03-25T11:43:32;1;1;
44684;PMS5003;76140;45.696;8.652;2024-03-25T11:45:58;1;1;
44684;PMS5003;76140;45.696;8.652;2024-03-25T11:48:24;0;0;
44684;PMS5003;76140;45.696;8.652;2024-03-25T11:50:50;1;0;
44684;PMS5003;76140;45.696;8.652;2024-03-25T11:53:16;0;0;
44684;PMS5003;76140;45.696;8.652;2024-03-25T11:55:45;1;1;
44684;PMS5003;76140;45.696;8.652;2024-03-25T11:58:08;0;0;
44684;PMS5003;76140;45.696;8.652;2024-03-25T12:00:33;2;1;
44684;PMS5003;76140;45.696;8.652;2024-03-25T12:02:58;1;1;
44684;PMS5003;76140;45.696;8.652;2024-03-25T12:05:23;0;0;
44684;PMS5003;76140;45.696;8.652;2024-03-25T12:07:48;0;0;
44684;PMS5003;76140;45.696;8.652;2024-03-25T12:10:13;0;0;
44684;PMS5003;76140;45.696;8.652;2024-03-25T12:12:38;0;0;
44684;PMS5003;76140;45.696;8.652;2024-03-25T12:15:03;1;1;
44684;PMS5003;76140;45.696;8.652;2024-03-25T12:17:28;0;0;
44684;PMS5003;76140;45.696;8.652;2024-03-25T12:20:02;1;1;
44684;PMS5003;76140;45.696;8.652;2024-03-25T12:22:18;0;0;
44684;PMS5003;76140;45.696;8.652;2024-03-25T12:24:43;1;1;
44684;PMS5003;76140;45.696;8.652;2024-03-25T12:27:08;0;0;
44684;PMS5003;76140;45.696;8.652;2024-03-25T12:29:33;0;0;
44684;PMS5003;76140;45.696;8.652;2024-03-25T12:31:58;1;1;
44684;PMS5003;76140;45.696;8.652;2024-03-25T12:34:24;0;0;
44684;PMS5003;76140;45.696;8.652;2024-03-25T12:36:48;0;0;
44684;PMS5003;76140;45.696;8.652;2024-03-25T12:39:17;0;0;
44684;PMS5003;76140;45.696;8.652;2024-03-25T12:41:38;0;0;
44684;PMS5003;76140;45.696;8.652;2024-03-25T12:44:11;0;0;
44684;PMS5003;76140;45.696;8.652;2024-03-25T12:46:29;0;0;
44684;PMS5003;76140;45.696;8.652;2024-03-25T12:48:54;0;0;
44684;PMS5003;76140;45.696;8.652;2024-03-25T12:51:19;0;0;
44684;PMS5003;76140;45.696;8.652;2024-03-25T12:53:44;0;0;
44684;PMS5003;76140;45.696;8.652;2024-03-25T12:56:09;1;1;
44684;PMS5003;76140;45.696;8.652;2024-03-25T12:58:35;1;0;
44684;PMS5003;76140;45.696;8.652;2024-03-25T13:01:08;0;0;
44684;PMS5003;76140;45.696;8.652;2024-03-25T13:03:33;0;0;
44684;PMS5003;76140;45.696;8.652;2024-03-25T13:06:03;1;1;
44684;PMS5003;76140;45.696;8.652;2024-03-25T13:08:23;0;0;
44684;PMS5003;76140;45.696;8.652;2024-03-25T13:10:48;4;4;
44684;PMS5003;76140;45.696;8.652;2024-03-25T13:13:14;2;1;
44684;PMS5003;76140;45.696;8.652;2024-03-25T13:15:39;1;1;
44684;PMS5003;76140;45.696;8.652;2024-03-25T13:18:04;0;0;
44684;PMS5003;76140;45.696;8.652;2024-03-25T13:20:29;3;3;
44684;PMS5003;76140;45.696;8.652;2024-03-25T13:22:54;1;1;
44684;PMS5003;76140;45.696;8.652;2024-03-25T13:25:19;2;2;
44684;PMS5003;76140;45.696;8.652;2024-03-25T13:27:44;1;1;
44684;PMS5003;76140;45.696;8.652;2024-03-25T13:30:09;1;1;
44684;PMS5003;76140;45.696;8.652;2024-03-25T13:32:34;0;0;
44684;PMS5003;76140;45.696;8.652;2024-03-25T13:34:59;1;1;
44684;PMS5003;76140;45.696;8.652;2024-03-25T13:37:24;1;1;
44684;PMS5003;76140;45.696;8.652;2024-03-25T13:39:50;1;1;
44684;PMS5003;76140;45.696;8.652;2024-03-25T13:42:15;1;1;
44684;PMS5003;76140;45.696;8.652;2024-03-25T13:44:40;0;0;
44684;PMS5003;76140;45.696;8.652;2024-03-25T13:47:05;1;1;
44684;PMS5003;76140;45.696;8.652;2024-03-25T13:49:30;0;0;
44684;PMS5003;76140;45.696;8.652;2024-03-25T13:51:56;1;1;
44684;PMS5003;76140;45.696;8.652;2024-03-25T13:54:20;1;1;
44684;PMS5003;76140;45.696;8.652;2024-03-25T13:56:45;1;1;
44684;PMS5003;76140;45.696;8.652;2024-03-25T13:59:10;2;2;
44684;PMS5003;76140;45.696;8.652;2024-03-25T14:01:35;8;5;
44684;PMS5003;76140;45.696;8.652;2024-03-25T14:04:01;14;14;
44684;PMS5003;76140;45.696;8.652;2024-03-25T14:06:26;16;16;
44684;PMS5003;76140;45.696;8.652;2024-03-25T14:08:52;45;45;
44684;PMS5003;76140;45.696;8.652;2024-03-25T14:11:17;9;9;
44684;PMS5003;76140;45.696;8.652;2024-03-25T14:13:43;12;12;
44684;PMS5003;76140;45.696;8.652;2024-03-25T14:16:08;4;4;
44684;PMS5003;76140;45.696;8.652;2024-03-25T14:35:08;3;3;
44684;PMS5003;76140;45.696;8.652;2024-03-25T14:37:33;3;3;
44684;PMS5003;76140;45.696;8.652;2024-03-25T14:39:58;2;2;
44684;PMS5003;76140;45.696;8.652;2024-03-25T14:42:23;3;3;
44684;PMS5003;76140;45.696;8.652;2024-03-25T14:44:48;1;1;
44684;PMS5003;76140;45.696;8.652;2024-03-25T14:47:13;1;1;
44684;PMS5003;76140;45.696;8.652;2024-03-25T14:49:39;1;1;
44684;PMS5003;76140;45.696;8.652;2024-03-25T14:52:04;3;3;
44684;PMS5003;76140;45.696;8.652;2024-03-25T14:54:33;0;0;
44684;PMS5003;76140;45.696;8.652;2024-03-25T14:56:54;2;2;
44684;PMS5003;76140;45.696;8.652;2024-03-25T14:59:19;1;1;
44684;PMS5003;76140;45.696;8.652;2024-03-25T15:01:44;2;2;
44684;PMS5003;76140;45.696;8.652;2024-03-25T15:04:10;3;3;
44684;PMS5003;76140;45.696;8.652;2024-03-25T15:06:35;4;4;
44684;PMS5003;76140;45.696;8.652;2024-03-25T15:09:00;4;4;
44684;PMS5003;76140;45.696;8.652;2024-03-25T15:11:25;4;4;
44684;PMS5003;76140;45.696;8.652;2024-03-25T15:13:50;4;4;
44684;PMS5003;76140;45.696;8.652;2024-03-25T15:16:15;4;4;
44684;PMS5003;76140;45.696;8.652;2024-03-25T15:18:40;3;3;
44684;PMS5003;76140;45.696;8.652;2024-03-25T15:21:05;5;4;
44684;PMS5003;76140;45.696;8.652;2024-03-25T15:23:31;4;4;
44684;PMS5003;76140;45.696;8.652;2024-03-25T15:25:56;4;4;
44684;PMS5003;76140;45.696;8.652;2024-03-25T15:28:21;4;4;
44684;PMS5003;76140;45.696;8.652;2024-03-25T15:30:46;4;3;
44684;PMS5003;76140;45.696;8.652;2024-03-25T15:33:11;4;4;
44684;PMS5003;76140;45.696;8.652;2024-03-25T15:35:36;4;4;
44684;PMS5003;76140;45.696;8.652;2024-03-25T15:38:01;5;4;
44684;PMS5003;76140;45.696;8.652;2024-03-25T15:40:26;6;5;
44684;PMS5003;76140;45.696;8.652;2024-03-25T15:42:52;5;5;
44684;PMS5003;76140;45.696;8.652;2024-03-25T15:45:17;4;4;
44684;PMS5003;76140;45.696;8.652;2024-03-25T15:47:42;5;5;
44684;PMS5003;76140;45.696;8.652;2024-03-25T15:50:07;5;4;
44684;PMS5003;76140;45.696;8.652;2024-03-25T15:52:32;4;4;
44684;PMS5003;76140;45.696;8.652;2024-03-25T15:54:57;4;4;
44684;PMS5003;76140;45.696;8.652;2024-03-25T15:57:22;5;5;
44684;PMS5003;76140;45.696;8.652;2024-03-25T15:59:48;4;4;
44684;PMS5003;76140;45.696;8.652;2024-03-25T16:02:13;5;5;
44684;PMS5003;76140;45.696;8.652;2024-03-25T16:04:38;7;7;
44684;PMS5003;76140;45.696;8.652;2024-03-25T16:07:03;6;6;
44684;PMS5003;76140;45.696;8.652;2024-03-25T16:09:29;6;6;
44684;PMS5003;76140;45.696;8.652;2024-03-25T16:11:53;7;6;
44684;PMS5003;76140;45.696;8.652;2024-03-25T16:14:18;7;7;
44684;PMS5003;76140;45.696;8.652;2024-03-25T16:16:44;6;4;
44684;PMS5003;76140;45.696;8.652;2024-03-25T16:19:09;6;6;
44684;PMS5003;76140;45.696;8.652;2024-03-25T16:21:34;6;5;
44684;PMS5003;76140;45.696;8.652;2024-03-25T16:23:59;5;5;
44684;PMS5003;76140;45.696;8.652;2024-03-25T16:26:24;7;7;
44684;PMS5003;76140;45.696;8.652;2024-03-25T16:28:49;9;8;
44684;PMS5003;76140;45.696;8.652;2024-03-25T16:31:15;6;6;
44684;PMS5003;76140;45.696;8.652;2024-03-25T16:33:40;7;7;
44684;PMS5003;76140;45.696;8.652;2024-03-25T16:36:05;6;6;
44684;PMS5003;76140;45.696;8.652;2024-03-25T16:38:30;8;7;
44684;PMS5003;76140;45.696;8.652;2024-03-25T16:40:55;6;6;
44684;PMS5003;76140;45.696;8.652;2024-03-25T16:43:20;6;6;
44684;PMS5003;76140;45.696;8.652;2024-03-25T16:45:46;7;7;
44684;PMS5003;76140;45.696;8.652;2024-03-25T16:48:11;5;5;
44684;PMS5003;76140;45.696;8.652;2024-03-25T16:50:36;6;6;